createdAt,value
2023-10-10T00:01:19.353Z,14.34
2023-10-10T00:04:03.809Z,14.34
2023-10-10T00:06:43.431Z,14.31
2023-10-10T00:09:21.127Z,14.31
2023-10-10T00:11:54.841Z,14.30
2023-10-10T00:14:30.137Z,14.26
2023-10-10T00:17:02.930Z,14.24
2023-10-10T00:19:44.268Z,14.23
2023-10-10T00:22:22.496Z,14.21
2023-10-10T00:24:54.526Z,14.20
2023-10-10T00:27:26.429Z,14.17
2023-10-10T00:30:03.289Z,14.16
2023-10-10T00:32:37.268Z,14.15
2023-10-10T00:35:11.896Z,14.14
2023-10-10T00:37:46.356Z,14.12
2023-10-10T00:40:26.666Z,14.11
2023-10-10T00:42:59.858Z,14.07
2023-10-10T00:45:36.902Z,14.04
2023-10-10T00:48:10.846Z,14.00
2023-10-10T00:50:49.554Z,13.97
2023-10-10T00:53:23.330Z,13.94
2023-10-10T00:55:58.752Z,13.94
2023-10-10T00:58:37.989Z,13.92
2023-10-10T01:01:13.829Z,13.86
2023-10-10T01:03:51.639Z,13.83
2023-10-10T01:06:27.398Z,13.84
2023-10-10T01:09:01.280Z,13.84
2023-10-10T01:11:33.518Z,13.85
2023-10-10T01:14:05.742Z,13.85
2023-10-10T01:16:41.754Z,13.83
2023-10-10T01:19:17.441Z,13.80
2023-10-10T01:21:59.097Z,13.78
2023-10-10T01:24:32.796Z,13.76
2023-10-10T01:27:17.135Z,13.76
2023-10-10T01:29:57.465Z,13.74
2023-10-10T01:32:30.719Z,13.73
2023-10-10T01:35:03.313Z,13.69
2023-10-10T01:37:42.357Z,13.66
2023-10-10T01:40:18.121Z,13.66
2023-10-10T01:42:55.647Z,13.66
2023-10-10T01:45:31.138Z,13.61
2023-10-10T01:48:09.534Z,13.55
2023-10-10T01:50:42.458Z,13.52
2023-10-10T01:53:14.348Z,13.41
2023-10-10T01:55:49.184Z,13.39
2023-10-10T01:58:21.728Z,13.41
2023-10-10T02:00:55.805Z,13.40
2023-10-10T02:03:29.156Z,13.37
2023-10-10T02:06:01.208Z,13.38
2023-10-10T02:08:36.342Z,13.40
2023-10-10T02:11:13.792Z,13.41
2023-10-10T02:13:48.628Z,13.40
2023-10-10T02:16:26.023Z,13.36
2023-10-10T02:19:00.619Z,13.32
2023-10-10T02:21:44.586Z,13.29
2023-10-10T02:24:39.909Z,13.27
2023-10-10T02:27:14.600Z,13.24
2023-10-10T02:29:50.956Z,13.17
2023-10-10T02:32:24.041Z,13.14
2023-10-10T02:35:16.133Z,13.11
2023-10-10T02:37:48.546Z,13.07
2023-10-10T02:40:32.217Z,13.05
2023-10-10T02:43:32.527Z,13.00
2023-10-10T02:46:07.155Z,12.97
2023-10-10T02:48:43.615Z,12.94
2023-10-10T02:51:17.378Z,12.91
2023-10-10T02:53:49.417Z,12.90
2023-10-10T02:56:21.583Z,12.88
2023-10-10T02:58:55.789Z,12.85
2023-10-10T03:01:53.075Z,12.83
2023-10-10T03:04:42.492Z,12.84
2023-10-10T03:07:28.908Z,12.83
2023-10-10T03:10:24.087Z,12.79
2023-10-10T03:13:09.595Z,12.72
2023-10-10T03:15:51.309Z,12.74
2023-10-10T03:18:30.182Z,12.74
2023-10-10T03:21:37.180Z,12.74
2023-10-10T03:24:16.902Z,12.70
2023-10-10T03:27:02.026Z,12.67
2023-10-10T03:29:48.424Z,12.65
2023-10-10T03:32:32.418Z,12.63
2023-10-10T03:35:14.689Z,12.61
2023-10-10T03:37:55.436Z,12.60
2023-10-10T03:40:48.707Z,12.61
2023-10-10T03:43:38.137Z,12.61
2023-10-10T03:46:27.297Z,12.60
2023-10-10T03:49:16.920Z,12.58
2023-10-10T03:52:07.346Z,12.56
2023-10-10T03:54:57.195Z,12.55
2023-10-10T03:57:47.287Z,12.56
2023-10-10T04:00:36.938Z,12.57
2023-10-10T04:03:27.263Z,12.53
2023-10-10T04:06:25.186Z,12.52
2023-10-10T04:09:15.672Z,12.52
2023-10-10T04:12:05.043Z,12.53
2023-10-10T04:14:54.515Z,12.53
2023-10-10T04:17:46.001Z,12.50
2023-10-10T04:20:35.168Z,12.49
2023-10-10T04:23:24.746Z,12.48
2023-10-10T04:26:13.849Z,12.47
2023-10-10T04:29:02.965Z,12.45
2023-10-10T04:31:52.511Z,12.42
2023-10-10T04:34:41.790Z,12.42
2023-10-10T04:37:31.312Z,12.41
2023-10-10T04:40:20.818Z,12.40
2023-10-10T04:43:10.813Z,12.39
2023-10-10T04:46:00.263Z,12.37
2023-10-10T04:48:53.900Z,12.34
2023-10-10T04:51:43.905Z,12.33
2023-10-10T04:54:33.550Z,12.33
2023-10-10T04:57:22.931Z,12.31
2023-10-10T05:00:12.495Z,12.35
2023-10-10T05:03:02.041Z,12.37
2023-10-10T05:05:51.723Z,12.37
2023-10-10T05:08:40.973Z,12.38
2023-10-10T05:11:30.841Z,12.36
2023-10-10T05:14:26.006Z,12.32
2023-10-10T05:17:15.800Z,12.32
2023-10-10T05:20:05.685Z,12.32
2023-10-10T05:22:57.012Z,12.29
2023-10-10T05:25:33.267Z,12.27
2023-10-10T05:28:05.719Z,12.27
2023-10-10T05:30:46.962Z,12.26
2023-10-10T05:33:21.085Z,12.24
2023-10-10T05:36:00.582Z,12.21
2023-10-10T05:38:32.577Z,12.17
2023-10-10T05:41:12.772Z,12.15
2023-10-10T05:43:45.089Z,12.17
2023-10-10T05:46:17.305Z,12.16
2023-10-10T05:48:49.568Z,12.13
2023-10-10T05:51:21.465Z,12.11
2023-10-10T05:53:52.092Z,12.11
2023-10-10T05:56:25.020Z,12.13
2023-10-10T05:58:57.755Z,12.09
2023-10-10T06:01:32.852Z,12.08
2023-10-10T06:04:04.820Z,12.07
2023-10-10T06:06:37.981Z,12.05
2023-10-10T06:09:27.659Z,12.02
2023-10-10T06:12:05.450Z,12.00
2023-10-10T06:14:37.932Z,12.03
2023-10-10T06:17:13.649Z,12.07
2023-10-10T06:19:48.261Z,12.11
2023-10-10T06:22:20.270Z,12.15
2023-10-10T06:24:57.501Z,12.19
2023-10-10T06:27:30.066Z,12.21
2023-10-10T06:30:02.249Z,12.24
2023-10-10T06:32:34.522Z,12.26
2023-10-10T06:35:27.983Z,12.29
2023-10-10T06:37:59.961Z,12.32
2023-10-10T06:40:31.954Z,12.34
2023-10-10T06:43:09.190Z,12.35
2023-10-10T06:45:42.348Z,12.39
2023-10-10T06:48:18.016Z,12.43
2023-10-10T06:50:51.988Z,12.45
2023-10-10T06:53:36.891Z,12.47
2023-10-10T06:56:20.364Z,12.51
2023-10-10T06:59:28.669Z,12.56
2023-10-10T07:02:14.193Z,12.61
2023-10-10T07:04:53.726Z,12.66
2023-10-10T07:07:27.778Z,12.70
2023-10-10T07:10:00.571Z,12.73
2023-10-10T07:12:33.081Z,12.76
2023-10-10T07:15:07.824Z,12.82
2023-10-10T07:17:40.381Z,12.85
2023-10-10T07:20:31.152Z,12.90
2023-10-10T07:23:04.122Z,12.92
2023-10-10T07:25:45.274Z,12.97
2023-10-10T07:28:19.056Z,13.01
2023-10-10T07:30:52.016Z,13.04
2023-10-10T07:33:27.647Z,13.07
2023-10-10T07:36:01.590Z,13.08
2023-10-10T07:38:36.883Z,13.11
2023-10-10T07:41:09.945Z,13.14
2023-10-10T07:43:43.548Z,13.18
2023-10-10T07:46:18.878Z,13.26
2023-10-10T07:48:55.578Z,13.31
2023-10-10T07:51:33.389Z,13.39
2023-10-10T07:54:14.046Z,13.44
2023-10-10T07:56:49.033Z,13.55
2023-10-10T07:59:23.866Z,13.65
2023-10-10T08:01:57.789Z,13.68
2023-10-10T08:04:30.024Z,13.69
2023-10-10T08:07:05.433Z,13.72
2023-10-10T08:09:38.660Z,13.72
2023-10-10T08:12:10.672Z,13.72
2023-10-10T08:14:46.178Z,13.75
2023-10-10T08:17:21.286Z,13.80
2023-10-10T08:19:53.180Z,13.80
2023-10-10T08:22:30.398Z,13.80
2023-10-10T08:25:02.346Z,13.79
2023-10-10T08:27:35.580Z,13.82
2023-10-10T08:30:14.914Z,13.83
2023-10-10T08:32:50.303Z,13.80
2023-10-10T08:35:24.127Z,13.81
2023-10-10T08:37:57.856Z,13.84
2023-10-10T08:40:37.051Z,13.86
2023-10-10T08:43:10.396Z,13.93
2023-10-10T08:45:51.327Z,13.94
2023-10-10T08:48:27.736Z,13.99
2023-10-10T08:51:05.234Z,14.01
2023-10-10T08:53:40.952Z,14.05
2023-10-10T08:56:16.860Z,14.06
2023-10-10T08:58:49.536Z,14.09
2023-10-10T09:01:23.702Z,14.12
2023-10-10T09:03:58.822Z,14.16
2023-10-10T09:06:47.115Z,14.17
2023-10-10T09:09:38.741Z,14.23
2023-10-10T09:12:16.501Z,14.25
2023-10-10T09:14:51.558Z,14.30
2023-10-10T09:17:34.211Z,14.36
2023-10-10T09:20:19.131Z,14.36
2023-10-10T09:22:53.465Z,14.44
2023-10-10T09:25:27.916Z,14.54
2023-10-10T09:28:05.304Z,14.62
2023-10-10T09:30:42.121Z,14.70
2023-10-10T09:33:24.597Z,14.74
2023-10-10T09:36:10.084Z,14.80
2023-10-10T09:38:47.065Z,14.84
2023-10-10T09:41:37.391Z,14.93
2023-10-10T09:44:38.435Z,15.03
2023-10-10T09:47:38.458Z,15.16
2023-10-10T09:50:36.652Z,15.30
2023-10-10T09:53:21.836Z,15.38
2023-10-10T09:55:55.787Z,15.45
2023-10-10T09:58:29.827Z,15.51
2023-10-10T10:01:15.903Z,15.54
2023-10-10T10:04:04.448Z,15.60
2023-10-10T10:07:07.491Z,15.68
2023-10-10T10:10:20.094Z,15.87
2023-10-10T10:13:15.292Z,15.94
2023-10-10T10:16:10.082Z,15.99
2023-10-10T10:18:48.037Z,16.10
2023-10-10T10:21:32.721Z,16.17
2023-10-10T10:24:28.010Z,16.24
2023-10-10T10:27:26.083Z,16.42
2023-10-10T10:30:11.949Z,16.49
2023-10-10T10:32:45.937Z,16.50
2023-10-10T10:35:23.243Z,16.54
2023-10-10T10:38:01.625Z,16.63
2023-10-10T10:40:47.809Z,16.82
2023-10-10T10:43:34.092Z,16.91
2023-10-10T10:46:16.995Z,16.91
2023-10-10T10:52:20.772Z,16.97
2023-10-10T10:55:22.168Z,16.94
2023-10-10T10:58:07.497Z,16.95
2023-10-10T11:03:46.231Z,17.12
2023-10-10T11:06:26.087Z,17.21
2023-10-10T11:09:10.951Z,17.24
2023-10-10T11:11:43.203Z,17.32
2023-10-10T11:14:20.665Z,17.49
2023-10-10T11:16:58.565Z,17.68
2023-10-10T11:19:41.087Z,17.91
2023-10-10T11:22:18.546Z,17.94
2023-10-10T11:24:59.129Z,17.93
2023-10-10T11:27:31.255Z,17.93
2023-10-10T11:30:09.404Z,17.97
2023-10-10T11:32:48.775Z,17.95
2023-10-10T11:35:28.314Z,17.97
2023-10-10T11:38:07.856Z,17.91
2023-10-10T11:40:44.700Z,17.99
2023-10-10T11:43:18.737Z,18.05
2023-10-10T11:45:55.277Z,18.15
2023-10-10T11:48:30.911Z,18.11
2023-10-10T11:51:02.776Z,18.21
2023-10-10T11:53:38.290Z,18.22
2023-10-10T11:56:18.026Z,18.25
2023-10-10T11:58:50.883Z,18.32
2023-10-10T12:01:48.900Z,18.49
2023-10-10T12:04:33.319Z,18.59
2023-10-10T12:07:08.033Z,18.60
2023-10-10T12:09:40.121Z,18.55
2023-10-10T12:12:11.988Z,18.57
2023-10-10T12:14:44.267Z,18.63
2023-10-10T12:17:18.724Z,18.66
2023-10-10T12:19:51.319Z,18.65
2023-10-10T12:22:23.989Z,18.64
2023-10-10T12:24:56.556Z,18.66
2023-10-10T12:27:31.503Z,18.72
2023-10-10T12:30:06.247Z,18.75
2023-10-10T12:32:38.284Z,18.77
2023-10-10T12:35:12.435Z,18.81
2023-10-10T12:37:46.178Z,18.84
2023-10-10T12:40:18.507Z,18.85
2023-10-10T12:42:50.494Z,18.92
2023-10-10T12:45:22.360Z,18.98
2023-10-10T12:47:54.636Z,19.05
2023-10-10T12:50:28.165Z,19.03
2023-10-10T12:53:09.026Z,19.02
2023-10-10T12:55:50.132Z,19.06
2023-10-10T12:58:26.175Z,19.09
2023-10-10T13:00:59.650Z,19.05
2023-10-10T13:03:32.832Z,19.03
2023-10-10T13:06:05.871Z,19.03
2023-10-10T13:08:40.863Z,19.02
2023-10-10T13:11:16.498Z,19.02
2023-10-10T13:13:50.325Z,19.02
2023-10-10T13:16:26.725Z,19.02
2023-10-10T13:19:00.042Z,19.03
2023-10-10T13:21:32.013Z,19.04
2023-10-10T13:24:04.572Z,19.03
2023-10-10T13:26:37.602Z,19.05
2023-10-10T13:29:10.265Z,19.01
2023-10-10T13:31:42.590Z,18.99
2023-10-10T13:34:18.334Z,18.97
2023-10-10T13:36:51.047Z,19.05
2023-10-10T13:39:34.713Z,19.07
2023-10-10T13:42:07.827Z,19.00
2023-10-10T13:44:40.569Z,19.08
2023-10-10T13:47:13.231Z,19.17
2023-10-10T13:49:46.614Z,19.15
2023-10-10T13:52:18.564Z,19.12
2023-10-10T13:54:53.313Z,19.11
2023-10-10T13:57:25.252Z,19.12
2023-10-10T13:59:58.205Z,19.14
2023-10-10T14:02:32.841Z,19.11
2023-10-10T14:05:07.561Z,19.08
2023-10-10T14:07:40.172Z,19.08
2023-10-10T14:10:12.641Z,19.06
2023-10-10T14:12:45.477Z,19.06
2023-10-10T14:15:19.852Z,19.01
2023-10-10T14:17:53.306Z,18.98
2023-10-10T14:20:26.484Z,18.99
2023-10-10T14:22:58.308Z,19.00
2023-10-10T14:25:38.665Z,19.00
2023-10-10T14:28:11.467Z,18.99
2023-10-10T14:30:43.563Z,18.93
2023-10-10T14:33:15.896Z,18.89
2023-10-10T14:35:48.320Z,18.87
2023-10-10T14:38:20.771Z,18.87
2023-10-10T14:40:52.895Z,18.86
2023-10-10T14:43:24.892Z,18.83
2023-10-10T14:45:58.259Z,18.82
2023-10-10T14:48:31.562Z,18.84
2023-10-10T14:51:07.166Z,18.86
2023-10-10T14:53:39.292Z,18.85
2023-10-10T14:56:12.418Z,18.80
2023-10-10T14:58:44.430Z,18.82
2023-10-10T15:01:19.239Z,18.82
2023-10-10T15:03:51.667Z,18.83
2023-10-10T15:06:30.160Z,18.83
2023-10-10T15:09:02.827Z,18.85
2023-10-10T15:11:35.393Z,18.87
2023-10-10T15:14:08.187Z,18.85
2023-10-10T15:16:41.087Z,18.81
2023-10-10T15:19:13.126Z,18.81
2023-10-10T15:21:49.827Z,18.80
2023-10-10T15:24:24.826Z,18.81
2023-10-10T15:26:57.493Z,18.80
2023-10-10T15:29:32.793Z,18.75
2023-10-10T15:32:05.877Z,18.73
2023-10-10T15:34:42.067Z,18.70
2023-10-10T15:37:16.923Z,18.64
2023-10-10T15:39:49.495Z,18.60
2023-10-10T15:42:22.421Z,18.55
2023-10-10T15:44:55.441Z,18.54
2023-10-10T15:47:28.819Z,18.53
2023-10-10T15:50:01.918Z,18.50
2023-10-10T15:52:35.063Z,18.49
2023-10-10T15:55:12.203Z,18.50
2023-10-10T15:57:44.343Z,18.48
2023-10-10T16:00:18.430Z,18.43
2023-10-10T16:02:54.060Z,18.37
2023-10-10T16:05:26.701Z,18.30
2023-10-10T16:08:08.902Z,18.28
2023-10-10T16:10:43.030Z,18.24
2023-10-10T16:13:15.317Z,18.18
2023-10-10T16:15:47.240Z,18.15
2023-10-10T16:18:20.475Z,18.11
2023-10-10T16:20:53.713Z,18.05
2023-10-10T16:23:25.901Z,18.01
2023-10-10T16:25:58.884Z,17.99
2023-10-10T16:28:32.125Z,17.94
2023-10-10T16:31:12.333Z,17.91
2023-10-10T16:33:44.289Z,17.88
2023-10-10T16:36:19.418Z,17.86
2023-10-10T16:38:53.279Z,17.84
2023-10-10T16:41:25.666Z,17.78
2023-10-10T16:44:01.715Z,17.75
2023-10-10T16:46:34.230Z,17.67
2023-10-10T16:49:07.501Z,17.62
2023-10-10T16:51:39.327Z,17.55
2023-10-10T16:54:14.147Z,17.50
2023-10-10T16:56:46.119Z,17.42
2023-10-10T16:59:18.250Z,17.34
2023-10-10T17:01:50.793Z,17.27
2023-10-10T17:04:25.928Z,17.21
2023-10-10T17:07:00.168Z,17.15
2023-10-10T17:09:36.972Z,17.09
2023-10-10T17:12:09.453Z,17.03
2023-10-10T17:14:41.385Z,16.94
2023-10-10T17:17:16.215Z,16.87
2023-10-10T17:19:47.976Z,16.83
2023-10-10T17:22:19.838Z,16.78
2023-10-10T17:24:51.655Z,16.75
2023-10-10T17:27:23.441Z,16.67
2023-10-10T17:29:58.319Z,16.60
2023-10-10T17:32:30.466Z,16.57
2023-10-10T17:35:05.933Z,16.55
2023-10-10T17:37:37.894Z,16.52
2023-10-10T17:40:14.788Z,16.49
2023-10-10T17:42:48.576Z,16.48
2023-10-10T17:45:20.782Z,16.47
2023-10-10T17:47:53.519Z,16.47
2023-10-10T17:50:25.622Z,16.45
2023-10-10T17:52:58.233Z,16.44
2023-10-10T17:55:29.995Z,16.42
2023-10-10T17:58:04.564Z,16.39
2023-10-10T18:00:36.531Z,16.36
2023-10-10T18:03:10.204Z,16.31
2023-10-10T18:05:44.312Z,16.28
2023-10-10T18:08:17.938Z,16.26
2023-10-10T18:10:49.840Z,16.21
2023-10-10T18:13:21.671Z,16.15
2023-10-10T18:15:53.934Z,16.12
2023-10-10T18:18:30.154Z,16.08
2023-10-10T18:21:02.301Z,16.04
2023-10-10T18:23:34.167Z,15.99
2023-10-10T18:26:14.025Z,15.94
2023-10-10T18:28:46.157Z,15.89
2023-10-10T18:31:18.450Z,15.84
2023-10-10T18:33:53.265Z,15.79
2023-10-10T18:36:25.405Z,15.75
2023-10-10T18:39:01.612Z,15.72
2023-10-10T18:41:34.035Z,15.67
2023-10-10T18:44:06.229Z,15.62
2023-10-10T18:46:38.997Z,15.57
2023-10-10T18:49:10.857Z,15.55
2023-10-10T18:51:41.176Z,15.53
2023-10-10T18:54:13.672Z,15.54
2023-10-10T18:56:46.355Z,15.52
2023-10-10T18:59:18.305Z,15.52
2023-10-10T19:01:51.693Z,15.50
2023-10-10T19:04:23.608Z,15.45
2023-10-10T19:06:55.893Z,15.41
2023-10-10T19:09:27.713Z,15.38
2023-10-10T19:11:59.562Z,15.36
2023-10-10T19:14:35.801Z,15.31
2023-10-10T19:17:07.670Z,15.27
2023-10-10T19:19:39.951Z,15.22
2023-10-10T19:22:11.752Z,15.21
2023-10-10T19:24:43.490Z,15.20
2023-10-10T19:27:13.758Z,15.18
2023-10-10T19:29:46.261Z,15.17
2023-10-10T19:32:19.854Z,15.12
2023-10-10T19:34:51.637Z,15.10
2023-10-10T19:37:21.848Z,15.07
2023-10-10T19:39:56.281Z,15.05
2023-10-10T19:42:29.886Z,15.02
2023-10-10T19:45:14.834Z,15.00
2023-10-10T19:47:58.856Z,14.93
2023-10-10T19:50:30.924Z,14.91
2023-10-10T19:53:03.836Z,14.90
2023-10-10T19:55:38.863Z,14.87
2023-10-10T19:58:11.031Z,14.82
2023-10-10T20:00:47.091Z,14.78
2023-10-10T20:03:23.546Z,14.73
2023-10-10T20:05:56.410Z,14.70
2023-10-10T20:08:30.410Z,14.69
2023-10-10T20:11:04.817Z,14.67
2023-10-10T20:13:36.901Z,14.67
2023-10-10T20:16:16.341Z,14.63
2023-10-10T20:18:49.217Z,14.57
2023-10-10T20:21:21.166Z,14.52
2023-10-10T20:23:53.090Z,14.52
2023-10-10T20:26:26.958Z,14.53
2023-10-10T20:28:59.092Z,14.53
2023-10-10T20:31:30.878Z,14.50
2023-10-10T20:34:01.096Z,14.50
2023-10-10T20:36:36.217Z,14.51
2023-10-10T20:39:08.206Z,14.48
2023-10-10T20:41:40.081Z,14.49
2023-10-10T20:44:11.064Z,14.51
2023-10-10T20:46:43.023Z,14.50
2023-10-10T20:49:17.198Z,14.45
2023-10-10T20:51:55.997Z,14.36
2023-10-10T20:54:28.493Z,14.35
2023-10-10T20:57:02.754Z,14.36
2023-10-10T20:59:35.498Z,14.32
2023-10-10T21:02:08.231Z,14.31
2023-10-10T21:04:40.166Z,14.31
2023-10-10T21:07:12.206Z,14.27
2023-10-10T21:09:44.597Z,14.25
2023-10-10T21:12:16.621Z,14.26
2023-10-10T21:14:48.878Z,14.28
2023-10-10T21:17:20.873Z,14.27
2023-10-10T21:19:53.000Z,14.28
2023-10-10T21:22:24.827Z,14.27
2023-10-10T21:24:55.218Z,14.28
2023-10-10T21:27:27.031Z,14.28
2023-10-10T21:29:58.539Z,14.28
2023-10-10T21:32:31.837Z,14.28
2023-10-10T21:35:09.953Z,14.25
2023-10-10T21:37:44.547Z,14.24
2023-10-10T21:40:21.454Z,14.23
2023-10-10T21:42:55.215Z,14.20
2023-10-10T21:45:33.559Z,14.19
2023-10-10T21:48:06.998Z,14.18
2023-10-10T21:50:41.976Z,14.18
2023-10-10T21:53:14.180Z,14.12
2023-10-10T21:55:44.569Z,14.08
2023-10-10T21:58:16.512Z,14.07
2023-10-10T22:00:56.499Z,14.08
2023-10-10T22:03:28.936Z,14.07
2023-10-10T22:06:02.871Z,14.05
2023-10-10T22:08:37.807Z,14.02
2023-10-10T22:11:10.093Z,14.01
2023-10-10T22:13:42.057Z,13.99
2023-10-10T22:16:13.967Z,13.95
2023-10-10T22:18:48.642Z,13.92
2023-10-10T22:21:23.645Z,13.83
2023-10-10T22:23:56.779Z,13.82
2023-10-10T22:26:28.874Z,13.82
2023-10-10T22:29:00.724Z,13.81
2023-10-10T22:31:32.990Z,13.76
2023-10-10T22:34:09.289Z,13.71
2023-10-10T22:36:42.458Z,13.67
2023-10-10T22:39:17.751Z,13.60
2023-10-10T22:41:49.682Z,13.61
2023-10-10T22:44:20.451Z,13.57
2023-10-10T22:46:50.730Z,13.55
2023-10-10T22:49:22.522Z,13.51
2023-10-10T22:51:54.299Z,13.47
2023-10-10T22:54:26.168Z,13.44
2023-10-10T22:56:57.390Z,13.43
2023-10-10T22:59:29.148Z,13.46
2023-10-10T23:02:01.046Z,13.45
2023-10-10T23:04:35.240Z,13.45
2023-10-10T23:07:08.369Z,13.47
2023-10-10T23:09:42.710Z,13.46
2023-10-10T23:12:15.592Z,13.47
2023-10-10T23:14:47.439Z,13.47
2023-10-10T23:17:21.128Z,13.44
2023-10-10T23:19:52.985Z,13.40
2023-10-10T23:22:24.230Z,13.37
2023-10-10T23:24:56.389Z,13.37
2023-10-10T23:27:28.406Z,13.35
2023-10-10T23:30:00.846Z,13.33
2023-10-10T23:32:32.841Z,13.31
2023-10-10T23:35:09.565Z,13.31
2023-10-10T23:37:43.613Z,13.30
2023-10-10T23:40:17.187Z,13.29
2023-10-10T23:42:52.898Z,13.29
2023-10-10T23:45:25.482Z,13.29
2023-10-10T23:47:59.086Z,13.29
2023-10-10T23:50:39.767Z,13.30
2023-10-10T23:53:14.810Z,13.30
2023-10-10T23:55:48.333Z,13.28
2023-10-10T23:58:22.915Z,13.25
